createdAt,value
2022-11-29T00:01:36.917Z,27.27
2022-11-29T00:04:04.844Z,26.17
2022-11-29T00:06:34.053Z,25.77
2022-11-29T00:09:06.392Z,22.30
2022-11-29T00:11:54.515Z,23.65
2022-11-29T00:14:25.065Z,24.52
2022-11-29T00:16:54.928Z,23.48
2022-11-29T00:19:22.798Z,24.20
2022-11-29T00:21:50.547Z,25.17
2022-11-29T00:24:18.507Z,21.90
2022-11-29T00:26:46.131Z,22.25
2022-11-29T00:29:14.163Z,23.90
2022-11-29T00:31:42.113Z,22.75
2022-11-29T00:34:11.620Z,24.88
2022-11-29T00:36:39.788Z,23.80
2022-11-29T00:39:11.530Z,21.83
2022-11-29T00:41:39.336Z,21.75
2022-11-29T00:44:06.950Z,20.23
2022-11-29T00:46:34.763Z,22.45
2022-11-29T00:49:02.357Z,21.02
2022-11-29T00:51:29.934Z,23.05
2022-11-29T00:53:57.515Z,23.75
2022-11-29T00:56:25.230Z,21.10
2022-11-29T00:58:52.877Z,22.00
2022-11-29T01:01:20.547Z,22.25
2022-11-29T01:03:48.426Z,22.90
2022-11-29T01:06:17.728Z,18.38
2022-11-29T01:08:46.138Z,22.20
2022-11-29T01:11:22.611Z,20.33
2022-11-29T01:13:51.244Z,23.85
2022-11-29T01:16:19.052Z,23.02
2022-11-29T01:18:46.778Z,25.67
2022-11-29T01:21:19.765Z,22.45
2022-11-29T01:23:47.993Z,23.45
2022-11-29T01:26:19.414Z,23.33
2022-11-29T01:28:48.707Z,21.05
2022-11-29T01:31:19.392Z,21.92
2022-11-29T01:33:47.301Z,24.98
2022-11-29T01:36:15.513Z,23.23
2022-11-29T01:38:43.390Z,22.38
2022-11-29T01:41:13.915Z,22.58
2022-11-29T01:43:59.876Z,22.90
2022-11-29T01:46:29.741Z,21.77
2022-11-29T01:49:18.781Z,22.08
2022-11-29T01:52:07.489Z,20.80
2022-11-29T01:54:38.907Z,19.55
2022-11-29T01:57:08.274Z,20.55
2022-11-29T01:59:38.679Z,21.25
2022-11-29T02:02:13.209Z,21.35
2022-11-29T02:04:43.817Z,22.08
2022-11-29T02:07:12.171Z,21.92
2022-11-29T02:09:40.003Z,21.08
2022-11-29T02:12:10.663Z,20.92
2022-11-29T02:14:49.980Z,22.42
2022-11-29T02:17:27.927Z,22.35
2022-11-29T02:20:27.709Z,22.33
2022-11-29T02:23:19.490Z,21.35
2022-11-29T02:26:08.987Z,19.60
2022-11-29T02:29:14.730Z,19.00
2022-11-29T02:32:19.577Z,18.50
2022-11-29T02:34:52.918Z,20.23
2022-11-29T02:37:42.257Z,18.20
2022-11-29T02:40:21.631Z,18.58
2022-11-29T02:42:57.807Z,18.25
2022-11-29T02:45:56.316Z,17.27
2022-11-29T02:48:33.607Z,15.98
2022-11-29T02:51:35.321Z,17.77
2022-11-29T02:54:12.941Z,16.30
2022-11-29T02:56:58.152Z,18.63
2022-11-29T02:59:50.561Z,16.63
2022-11-29T03:02:32.879Z,16.58
2022-11-29T03:05:18.823Z,16.30
2022-11-29T03:07:55.758Z,15.75
2022-11-29T03:10:55.879Z,16.73
2022-11-29T03:14:04.103Z,15.48
2022-11-29T03:16:37.165Z,15.82
2022-11-29T03:19:23.448Z,17.20
2022-11-29T03:22:19.855Z,16.35
2022-11-29T03:25:04.506Z,15.30
2022-11-29T03:27:55.995Z,15.80
2022-11-29T03:30:23.722Z,16.17
2022-11-29T03:33:21.398Z,17.40
2022-11-29T03:35:59.346Z,16.00
2022-11-29T03:38:33.133Z,17.48
2022-11-29T03:41:09.451Z,17.85
2022-11-29T03:46:23.584Z,16.63
2022-11-29T03:49:00.226Z,18.23
2022-11-29T03:51:45.302Z,19.98
2022-11-29T03:54:18.162Z,23.10
2022-11-29T03:56:46.061Z,24.05
2022-11-29T03:59:31.765Z,24.25
2022-11-29T04:02:43.870Z,25.67
2022-11-29T04:05:17.489Z,27.08
2022-11-29T04:08:21.424Z,27.48
2022-11-29T04:11:28.644Z,24.67
2022-11-29T04:14:15.021Z,29.88
2022-11-29T04:17:10.343Z,28.23
2022-11-29T04:19:52.676Z,30.00
2022-11-29T04:22:37.928Z,27.73
2022-11-29T04:25:27.162Z,26.87
2022-11-29T04:27:54.697Z,30.05
2022-11-29T04:30:24.138Z,27.45
2022-11-29T04:33:22.950Z,29.33
2022-11-29T04:36:08.252Z,30.73
2022-11-29T04:38:53.950Z,29.48
2022-11-29T04:41:55.016Z,31.83
2022-11-29T04:44:45.345Z,28.23
2022-11-29T04:47:39.058Z,30.13
2022-11-29T04:50:43.814Z,30.48
2022-11-29T04:53:17.900Z,35.33
2022-11-29T04:56:04.007Z,33.65
2022-11-29T05:01:07.684Z,30.92
2022-11-29T05:03:39.283Z,32.58
2022-11-29T05:06:17.591Z,31.90
2022-11-29T05:08:48.395Z,32.58
2022-11-29T05:11:26.486Z,31.98
2022-11-29T05:14:08.854Z,34.35
2022-11-29T05:17:01.288Z,30.30
2022-11-29T05:19:47.457Z,33.90
2022-11-29T05:24:56.814Z,41.28
2022-11-29T05:27:32.274Z,34.65
2022-11-29T05:30:14.939Z,36.00
2022-11-29T05:32:57.878Z,32.60
2022-11-29T05:35:34.285Z,33.35
2022-11-29T05:40:45.177Z,32.15
2022-11-29T05:43:23.317Z,34.72
2022-11-29T05:46:09.244Z,32.53
2022-11-29T05:48:47.591Z,30.33
2022-11-29T05:51:15.104Z,35.22
2022-11-29T05:54:11.092Z,36.33
2022-11-29T05:57:00.240Z,32.55
2022-11-29T05:59:29.598Z,33.97
2022-11-29T06:02:03.310Z,31.60
2022-11-29T06:04:57.305Z,32.97
2022-11-29T06:07:49.479Z,33.35
2022-11-29T06:10:23.836Z,33.88
2022-11-29T06:13:18.764Z,31.65
2022-11-29T06:16:36.734Z,32.57
2022-11-29T06:19:26.150Z,33.03
2022-11-29T06:22:24.714Z,32.15
2022-11-29T06:25:34.084Z,35.20
2022-11-29T06:28:33.514Z,32.75
2022-11-29T06:31:04.113Z,33.15
2022-11-29T06:33:44.966Z,33.20
2022-11-29T06:36:25.935Z,31.83
2022-11-29T06:38:53.660Z,35.88
2022-11-29T06:41:23.584Z,38.65
2022-11-29T06:43:51.537Z,33.85
2022-11-29T06:46:25.237Z,35.78
2022-11-29T06:49:24.127Z,37.03
2022-11-29T06:51:57.828Z,34.42
2022-11-29T06:54:48.322Z,32.20
2022-11-29T06:57:33.736Z,32.45
2022-11-29T07:00:11.625Z,35.05
2022-11-29T07:02:41.940Z,35.75
2022-11-29T07:05:21.369Z,31.88
2022-11-29T07:07:49.345Z,36.05
2022-11-29T07:10:18.503Z,34.58
2022-11-29T07:12:47.930Z,30.50
2022-11-29T07:15:18.255Z,35.97
2022-11-29T07:17:54.771Z,36.35
2022-11-29T07:20:31.418Z,29.65
2022-11-29T07:23:32.610Z,36.22
2022-11-29T07:26:35.644Z,35.00
2022-11-29T07:29:07.527Z,37.55
2022-11-29T07:31:53.750Z,40.65
2022-11-29T07:34:53.627Z,29.27
2022-11-29T07:38:10.107Z,27.95
2022-11-29T07:41:00.296Z,32.35
2022-11-29T07:43:38.466Z,28.98
2022-11-29T07:46:06.042Z,31.88
2022-11-29T07:48:33.631Z,29.50
2022-11-29T07:51:01.456Z,28.63
2022-11-29T07:53:30.318Z,29.27
2022-11-29T07:55:58.822Z,30.42
2022-11-29T07:58:26.477Z,28.45
2022-11-29T08:00:54.176Z,29.25
2022-11-29T08:03:21.765Z,27.20
2022-11-29T08:05:49.375Z,30.45
2022-11-29T08:08:17.003Z,29.50
2022-11-29T08:10:44.836Z,28.85
2022-11-29T08:13:12.443Z,28.02
2022-11-29T08:15:46.742Z,28.65
2022-11-29T08:18:15.152Z,30.33
2022-11-29T08:20:43.183Z,29.95
2022-11-29T08:23:13.110Z,33.20
2022-11-29T08:25:42.274Z,33.92
2022-11-29T08:28:12.651Z,33.50
2022-11-29T08:30:40.199Z,33.30
2022-11-29T08:33:07.802Z,32.17
2022-11-29T08:35:36.011Z,29.77
2022-11-29T08:38:04.917Z,34.53
2022-11-29T08:40:32.520Z,31.33
2022-11-29T08:43:00.080Z,31.13
2022-11-29T08:45:27.682Z,37.10
2022-11-29T08:47:55.344Z,31.83
2022-11-29T08:50:22.964Z,31.45
2022-11-29T08:53:09.616Z,32.28
2022-11-29T08:55:40.644Z,32.13
2022-11-29T08:58:11.601Z,35.75
2022-11-29T09:00:40.330Z,31.02
2022-11-29T09:03:27.479Z,34.78
2022-11-29T09:05:55.332Z,31.27
2022-11-29T09:08:22.947Z,35.65
2022-11-29T09:10:50.647Z,31.13
2022-11-29T09:13:18.267Z,38.28
2022-11-29T09:15:46.016Z,32.80
2022-11-29T09:18:13.706Z,33.78
2022-11-29T09:20:46.611Z,32.28
2022-11-29T09:23:14.218Z,30.92
2022-11-29T09:25:47.136Z,30.75
2022-11-29T09:28:14.699Z,31.70
2022-11-29T09:30:42.350Z,32.17
2022-11-29T09:33:09.925Z,33.33
2022-11-29T09:35:37.471Z,31.65
2022-11-29T09:38:05.644Z,28.80
2022-11-29T09:40:50.295Z,32.42
2022-11-29T09:43:53.189Z,30.98
2022-11-29T09:46:23.462Z,31.33
2022-11-29T09:49:19.086Z,27.73
2022-11-29T09:52:02.558Z,28.67
2022-11-29T09:54:39.010Z,26.65
2022-11-29T09:59:42.915Z,30.25
2022-11-29T10:02:29.249Z,26.40
2022-11-29T10:05:26.613Z,25.05
2022-11-29T10:08:09.972Z,23.77
2022-11-29T10:10:49.444Z,27.17
2022-11-29T10:13:38.194Z,23.90
2022-11-29T10:16:31.690Z,29.13
2022-11-29T10:19:09.608Z,26.90
2022-11-29T10:21:38.798Z,23.88
2022-11-29T10:24:17.389Z,23.52
2022-11-29T10:26:45.671Z,25.95
2022-11-29T10:29:14.656Z,26.00
2022-11-29T10:31:44.779Z,24.20
2022-11-29T10:34:19.026Z,26.80
2022-11-29T10:36:52.504Z,26.73
2022-11-29T10:39:44.012Z,25.10
2022-11-29T10:42:44.287Z,27.08
2022-11-29T10:45:35.408Z,24.48
2022-11-29T10:48:04.467Z,27.38
2022-11-29T10:50:34.945Z,24.15
2022-11-29T10:53:09.505Z,28.02
2022-11-29T10:55:46.094Z,23.15
2022-11-29T10:58:23.382Z,22.65
2022-11-29T11:00:59.044Z,21.38
2022-11-29T11:03:29.533Z,22.92
2022-11-29T11:06:22.149Z,24.83
2022-11-29T11:08:57.958Z,23.48
2022-11-29T11:11:32.952Z,25.10
2022-11-29T11:14:06.057Z,27.90
2022-11-29T11:16:37.273Z,22.70
2022-11-29T11:19:31.085Z,21.48
2022-11-29T11:22:00.478Z,21.38
2022-11-29T11:24:30.926Z,21.35
2022-11-29T11:26:59.350Z,23.27
2022-11-29T11:29:38.942Z,20.02
2022-11-29T11:32:15.299Z,24.73
2022-11-29T11:37:28.688Z,24.77
2022-11-29T11:39:59.182Z,24.00
2022-11-29T11:42:40.410Z,26.45
2022-11-29T11:45:11.125Z,26.35
2022-11-29T11:47:53.194Z,28.27
2022-11-29T11:50:41.162Z,24.98
2022-11-29T11:53:19.897Z,23.50
2022-11-29T11:56:01.015Z,21.40
2022-11-29T11:58:39.602Z,21.30
2022-11-29T12:01:12.889Z,24.95
2022-11-29T12:04:06.100Z,23.25
2022-11-29T12:06:52.223Z,26.17
2022-11-29T12:12:10.376Z,26.10
2022-11-29T12:14:56.710Z,25.80
2022-11-29T12:17:36.583Z,26.90
2022-11-29T12:20:28.382Z,22.30
2022-11-29T12:23:08.530Z,23.17
2022-11-29T12:25:47.893Z,24.48
2022-11-29T12:28:20.591Z,23.00
2022-11-29T12:31:33.512Z,22.75
2022-11-29T12:34:04.140Z,25.23
2022-11-29T12:37:10.173Z,24.35
2022-11-29T12:40:02.686Z,24.73
2022-11-29T12:42:51.409Z,29.13
2022-11-29T12:45:43.731Z,28.13
2022-11-29T12:48:42.168Z,27.20
2022-11-29T12:51:15.495Z,29.38
2022-11-29T12:54:12.164Z,31.83
2022-11-29T12:56:59.838Z,29.48
2022-11-29T12:59:27.377Z,32.65
2022-11-29T13:02:21.177Z,35.10
2022-11-29T13:04:59.605Z,33.63
2022-11-29T13:07:39.261Z,32.22
2022-11-29T13:10:21.988Z,37.88
2022-11-29T13:12:58.016Z,37.15
2022-11-29T13:15:38.127Z,39.38
2022-11-29T13:18:16.807Z,32.92
2022-11-29T13:21:09.359Z,34.22
2022-11-29T13:26:40.690Z,34.72
2022-11-29T13:29:17.243Z,34.25
2022-11-29T13:31:45.797Z,40.58
2022-11-29T13:34:38.154Z,35.38
2022-11-29T13:37:19.074Z,38.63
2022-11-29T13:40:01.621Z,36.40
2022-11-29T13:42:47.643Z,37.17
2022-11-29T13:45:29.090Z,38.67
2022-11-29T13:47:59.653Z,35.83
2022-11-29T13:50:45.997Z,38.28
2022-11-29T13:53:25.205Z,39.15
2022-11-29T13:56:01.394Z,38.72
2022-11-29T13:58:29.022Z,40.05
2022-11-29T14:01:02.450Z,41.83
2022-11-29T14:03:38.935Z,40.20
2022-11-29T14:09:16.644Z,39.60
2022-11-29T14:11:59.044Z,41.67
2022-11-29T14:14:29.090Z,34.72
2022-11-29T14:17:00.786Z,40.40
2022-11-29T14:19:33.780Z,44.72
2022-11-29T14:22:01.829Z,43.33
2022-11-29T14:24:32.546Z,39.30
2022-11-29T14:27:10.066Z,37.05
2022-11-29T14:29:50.052Z,41.28
2022-11-29T14:32:23.828Z,41.70
2022-11-29T14:35:08.248Z,41.38
2022-11-29T14:38:03.097Z,45.58
2022-11-29T14:40:42.486Z,42.78
2022-11-29T14:43:40.760Z,50.35
2022-11-29T14:46:17.650Z,45.72
2022-11-29T14:48:46.850Z,47.88
2022-11-29T14:51:17.150Z,42.30
2022-11-29T14:53:46.288Z,43.75
2022-11-29T14:56:32.268Z,45.25
2022-11-29T14:59:37.361Z,41.22
2022-11-29T15:02:20.313Z,44.40
2022-11-29T15:04:50.318Z,44.28
2022-11-29T15:07:23.895Z,45.08
2022-11-29T15:09:51.890Z,47.30
2022-11-29T15:12:23.985Z,46.45
2022-11-29T15:15:35.544Z,48.47
2022-11-29T15:18:34.186Z,48.55
2022-11-29T15:21:19.820Z,51.17
2022-11-29T15:23:47.473Z,49.33
2022-11-29T15:26:20.159Z,47.28
2022-11-29T15:28:47.808Z,44.10
2022-11-29T15:31:18.224Z,47.83
2022-11-29T15:33:48.015Z,44.80
2022-11-29T15:36:21.356Z,44.38
2022-11-29T15:38:59.735Z,42.55
2022-11-29T15:41:29.307Z,44.38
2022-11-29T15:43:59.395Z,45.90
2022-11-29T15:46:28.970Z,40.05
2022-11-29T15:49:13.544Z,39.67
2022-11-29T15:51:41.313Z,46.28
2022-11-29T15:54:13.544Z,49.65
2022-11-29T15:56:48.062Z,42.95
2022-11-29T15:59:22.552Z,41.20
2022-11-29T16:01:51.023Z,42.85
2022-11-29T16:04:20.344Z,40.72
2022-11-29T16:06:49.051Z,46.40
2022-11-29T16:09:23.325Z,41.72
2022-11-29T16:11:51.005Z,40.63
2022-11-29T16:14:22.520Z,42.15
2022-11-29T16:16:52.636Z,41.58
2022-11-29T16:19:34.351Z,44.67
2022-11-29T16:22:09.460Z,40.25
2022-11-29T16:25:00.982Z,43.17
2022-11-29T16:27:35.287Z,46.35
2022-11-29T16:30:03.835Z,41.78
2022-11-29T16:32:36.619Z,39.83
2022-11-29T16:35:13.140Z,44.50
2022-11-29T16:37:42.996Z,42.83
2022-11-29T16:40:30.160Z,40.83
2022-11-29T16:43:03.826Z,41.28
2022-11-29T16:45:41.500Z,38.42
2022-11-29T16:48:26.336Z,40.28
2022-11-29T16:51:13.298Z,42.00
2022-11-29T16:53:42.812Z,42.08
2022-11-29T16:56:14.739Z,36.42
2022-11-29T16:59:25.097Z,37.50
2022-11-29T17:01:31.905Z,36.67
2022-11-29T17:04:00.607Z,36.65
2022-11-29T17:06:29.549Z,32.38
2022-11-29T17:08:59.049Z,37.17
2022-11-29T17:11:26.832Z,35.75
2022-11-29T17:13:54.434Z,35.25
2022-11-29T17:16:23.720Z,38.63
2022-11-29T17:18:52.875Z,37.22
2022-11-29T17:21:26.053Z,38.35
2022-11-29T17:23:54.460Z,42.97
2022-11-29T17:26:22.711Z,38.95
2022-11-29T17:28:51.572Z,35.38
2022-11-29T17:31:22.190Z,36.92
2022-11-29T17:33:50.690Z,38.67
2022-11-29T17:36:19.856Z,37.83
2022-11-29T17:38:48.245Z,40.30
2022-11-29T17:41:18.158Z,41.08
2022-11-29T17:43:45.756Z,42.33
2022-11-29T17:46:15.425Z,46.63
2022-11-29T17:48:45.452Z,40.10
2022-11-29T17:51:43.716Z,43.28
2022-11-29T17:54:04.332Z,39.22
2022-11-29T17:56:32.331Z,37.13
2022-11-29T17:59:01.362Z,36.15
2022-11-29T18:01:31.221Z,36.70
2022-11-29T18:04:01.864Z,39.83
2022-11-29T18:06:33.882Z,46.72
2022-11-29T18:09:02.023Z,39.58
2022-11-29T18:11:43.326Z,37.58
2022-11-29T18:14:17.046Z,41.35
2022-11-29T18:16:45.635Z,37.58
2022-11-29T18:19:16.323Z,41.80
2022-11-29T18:21:44.435Z,35.30
2022-11-29T18:24:12.122Z,40.20
2022-11-29T18:26:39.938Z,37.53
2022-11-29T18:29:08.142Z,39.65
2022-11-29T18:31:37.769Z,39.45
2022-11-29T18:34:09.316Z,41.72
2022-11-29T18:36:42.874Z,40.38
2022-11-29T18:39:20.760Z,44.38
2022-11-29T18:41:49.629Z,39.70
2022-11-29T18:44:19.500Z,40.10
2022-11-29T18:46:47.292Z,38.10
2022-11-29T18:49:16.725Z,43.53
2022-11-29T18:51:45.775Z,37.80
2022-11-29T18:54:14.714Z,37.58
2022-11-29T18:56:42.693Z,38.50
2022-11-29T18:59:17.028Z,39.85
2022-11-29T19:01:46.695Z,40.95
2022-11-29T19:04:19.534Z,38.83
2022-11-29T19:06:47.685Z,39.20
2022-11-29T19:09:23.817Z,41.45
2022-11-29T19:11:51.614Z,41.67
2022-11-29T19:14:19.864Z,42.60
2022-11-29T19:16:49.110Z,41.88
2022-11-29T19:19:18.637Z,46.28
2022-11-29T19:21:46.506Z,43.10
2022-11-29T19:24:15.733Z,41.05
2022-11-29T19:26:45.119Z,40.17
2022-11-29T19:29:17.324Z,43.13
2022-11-29T19:31:45.425Z,42.35
2022-11-29T19:34:13.131Z,46.63
2022-11-29T19:36:44.966Z,44.30
2022-11-29T19:39:15.240Z,42.78
2022-11-29T19:41:45.179Z,44.10
2022-11-29T19:44:12.929Z,41.75
2022-11-29T19:46:43.461Z,47.97
2022-11-29T19:49:11.658Z,43.38
2022-11-29T19:51:39.320Z,47.70
2022-11-29T19:54:08.617Z,44.47
2022-11-29T19:56:36.460Z,40.72
2022-11-29T19:59:04.199Z,41.35
2022-11-29T20:01:40.093Z,35.63
2022-11-29T20:04:08.820Z,35.40
2022-11-29T20:06:36.991Z,39.33
2022-11-29T20:09:04.944Z,38.35
2022-11-29T20:11:32.748Z,37.90
2022-11-29T20:14:04.985Z,34.22
2022-11-29T20:16:34.361Z,34.65
2022-11-29T20:19:02.085Z,37.88
2022-11-29T20:21:31.640Z,36.25
2022-11-29T20:24:01.975Z,33.60
2022-11-29T20:26:31.609Z,37.35
2022-11-29T20:28:59.700Z,32.97
2022-11-29T20:31:27.384Z,36.35
2022-11-29T20:33:57.375Z,34.03
2022-11-29T20:36:49.715Z,32.22
2022-11-29T20:39:43.824Z,32.10
2022-11-29T20:42:38.763Z,33.75
2022-11-29T20:45:08.880Z,34.75
2022-11-29T20:48:02.269Z,36.78
2022-11-29T20:50:32.055Z,36.03
2022-11-29T20:53:08.563Z,32.63
2022-11-29T20:55:42.460Z,34.90
2022-11-29T21:00:40.067Z,35.95
2022-11-29T21:03:07.737Z,32.58
2022-11-29T21:05:37.999Z,35.33
2022-11-29T21:08:05.745Z,33.13
2022-11-29T21:10:33.498Z,35.38
2022-11-29T21:13:01.534Z,34.17
2022-11-29T21:15:29.416Z,30.27
2022-11-29T21:17:57.557Z,33.95
2022-11-29T21:20:26.875Z,35.20
2022-11-29T21:23:30.079Z,37.67
2022-11-29T21:26:13.071Z,35.38
2022-11-29T21:28:49.614Z,33.92
2022-11-29T21:31:17.817Z,34.00
2022-11-29T21:33:45.796Z,33.58
2022-11-29T21:36:13.784Z,34.90
2022-11-29T21:38:41.619Z,34.70
2022-11-29T21:41:09.432Z,38.28
2022-11-29T21:44:04.926Z,36.47
2022-11-29T21:46:24.559Z,37.92
2022-11-29T21:48:52.920Z,38.65
2022-11-29T21:51:20.606Z,37.10
2022-11-29T21:53:48.294Z,40.70
2022-11-29T21:56:15.966Z,39.65
2022-11-29T21:58:43.702Z,39.58
2022-11-29T22:01:16.726Z,41.15
2022-11-29T22:03:44.459Z,39.72
2022-11-29T22:06:14.553Z,42.35
2022-11-29T22:08:42.642Z,39.92
2022-11-29T22:11:12.895Z,41.40
2022-11-29T22:14:01.515Z,39.40
2022-11-29T22:16:30.202Z,37.97
2022-11-29T22:18:57.897Z,39.35
2022-11-29T22:21:25.566Z,40.10
2022-11-29T22:23:53.630Z,39.55
2022-11-29T22:26:22.258Z,42.47
2022-11-29T22:28:49.886Z,38.38
2022-11-29T22:31:17.488Z,41.70
2022-11-29T22:33:45.093Z,43.95
2022-11-29T22:36:13.369Z,38.25
2022-11-29T22:38:41.239Z,41.17
2022-11-29T22:41:13.953Z,44.60
2022-11-29T22:43:42.312Z,38.53
2022-11-29T22:46:11.793Z,41.97
2022-11-29T22:48:40.255Z,43.35
2022-11-29T22:51:09.895Z,41.13
2022-11-29T22:53:39.200Z,40.55
2022-11-29T22:56:09.489Z,41.65
2022-11-29T22:58:37.685Z,47.30
2022-11-29T23:01:14.306Z,46.92
2022-11-29T23:03:44.719Z,42.28
2022-11-29T23:06:17.154Z,43.47
2022-11-29T23:08:46.219Z,42.00
2022-11-29T23:11:19.644Z,40.88
2022-11-29T23:13:47.330Z,36.20
2022-11-29T23:16:33.495Z,37.28
2022-11-29T23:19:01.718Z,36.22
2022-11-29T23:21:34.120Z,37.55
2022-11-29T23:24:02.162Z,32.70
2022-11-29T23:26:39.870Z,31.70
2022-11-29T23:29:09.422Z,33.10
2022-11-29T23:31:37.532Z,30.83
2022-11-29T23:34:05.413Z,28.77
2022-11-29T23:36:33.071Z,29.73
2022-11-29T23:39:00.972Z,28.40
2022-11-29T23:41:29.718Z,26.17
2022-11-29T23:43:59.615Z,23.63
2022-11-29T23:46:27.259Z,24.60
2022-11-29T23:48:55.017Z,23.52
2022-11-29T23:51:22.590Z,21.42
2022-11-29T23:53:54.161Z,23.25
2022-11-29T23:56:22.255Z,22.33
2022-11-29T23:58:50.297Z,20.98
